createdAt,value
2018-12-23T00:00:12.823Z,21.30
2018-12-23T00:02:45.926Z,25.57
2018-12-23T00:05:19.094Z,30.00
2018-12-23T00:07:52.262Z,23.83
2018-12-23T00:10:25.920Z,20.83
2018-12-23T00:12:59.113Z,21.23
2018-12-23T00:15:31.847Z,24.33
2018-12-23T00:18:05.168Z,21.27
2018-12-23T00:20:39.636Z,21.43
2018-12-23T00:23:12.647Z,23.23
2018-12-23T00:25:48.407Z,19.73
2018-12-23T00:28:21.134Z,20.17
2018-12-23T00:30:55.992Z,19.47
2018-12-23T00:33:30.278Z,23.33
2018-12-23T00:36:03.073Z,24.30
2018-12-23T00:38:36.811Z,21.13
2018-12-23T00:41:09.631Z,23.13
2018-12-23T00:43:44.716Z,23.43
2018-12-23T00:46:17.703Z,25.23
2018-12-23T00:48:51.377Z,45.47
2018-12-23T00:51:24.477Z,28.80
2018-12-23T00:53:57.421Z,27.62
2018-12-23T00:56:31.027Z,36.73
2018-12-23T00:59:04.274Z,30.73
2018-12-23T01:01:38.307Z,29.53
2018-12-23T01:04:10.799Z,24.63
2018-12-23T01:06:43.478Z,25.53
2018-12-23T01:09:15.951Z,25.67
2018-12-23T01:11:49.274Z,27.97
2018-12-23T01:14:22.041Z,25.83
2018-12-23T01:16:57.246Z,27.83
2018-12-23T01:19:30.264Z,34.97
2018-12-23T01:22:04.142Z,34.60
2018-12-23T01:24:37.362Z,34.07
2018-12-23T01:27:10.155Z,27.63
2018-12-23T01:29:42.906Z,31.23
2018-12-23T01:32:15.268Z,24.63
2018-12-23T01:34:49.307Z,53.60
2018-12-23T01:37:23.228Z,58.67
2018-12-23T01:39:56.077Z,66.33
2018-12-23T01:42:28.770Z,53.13
2018-12-23T01:45:03.605Z,70.43
2018-12-23T01:47:36.683Z,75.20
2018-12-23T01:50:09.922Z,89.33
2018-12-23T01:52:42.841Z,69.57
2018-12-23T01:55:15.723Z,54.83
2018-12-23T01:57:48.691Z,67.97
2018-12-23T02:00:22.382Z,64.23
2018-12-23T02:02:55.921Z,65.73
2018-12-23T02:05:28.834Z,71.37
2018-12-23T02:08:02.335Z,68.60
2018-12-23T02:10:35.268Z,63.90
2018-12-23T02:13:08.441Z,53.23
2018-12-23T02:15:41.262Z,54.10
2018-12-23T02:18:14.266Z,55.53
2018-12-23T02:20:47.215Z,53.57
2018-12-23T02:23:20.086Z,54.93
2018-12-23T02:25:53.283Z,43.53
2018-12-23T02:28:26.484Z,51.93
2018-12-23T02:30:59.567Z,56.73
2018-12-23T02:33:33.326Z,60.47
2018-12-23T02:36:05.995Z,53.53
2018-12-23T02:38:40.171Z,56.60
2018-12-23T02:41:12.957Z,59.43
2018-12-23T02:43:45.752Z,48.58
2018-12-23T02:46:19.686Z,42.63
2018-12-23T02:48:52.132Z,46.57
2018-12-23T02:51:24.882Z,43.47
2018-12-23T02:53:57.843Z,49.50
2018-12-23T02:56:30.679Z,50.20
2018-12-23T02:59:04.628Z,49.63
2018-12-23T03:01:37.330Z,55.27
2018-12-23T03:04:10.939Z,43.70
2018-12-23T03:06:48.364Z,58.33
2018-12-23T03:09:24.461Z,49.47
2018-12-23T03:11:57.967Z,53.00
2018-12-23T03:14:31.755Z,46.75
2018-12-23T03:17:04.172Z,48.93
2018-12-23T03:19:37.831Z,52.40
2018-12-23T03:22:10.652Z,45.27
2018-12-23T03:24:52.640Z,42.17
2018-12-23T03:27:30.836Z,23.73
2018-12-23T03:30:04.604Z,25.33
2018-12-23T03:32:37.332Z,28.00
2018-12-23T03:35:10.304Z,33.37
2018-12-23T03:37:43.232Z,27.30
2018-12-23T03:40:16.208Z,29.00
2018-12-23T03:42:49.343Z,33.83
2018-12-23T03:45:21.862Z,27.17
2018-12-23T03:47:56.938Z,46.60
2018-12-23T03:50:30.487Z,44.13
2018-12-23T03:53:03.058Z,50.30
2018-12-23T03:55:36.095Z,43.17
2018-12-23T03:58:09.027Z,44.20
2018-12-23T04:00:41.935Z,40.73
2018-12-23T04:03:15.655Z,31.17
2018-12-23T04:05:48.247Z,31.27
2018-12-23T04:08:21.760Z,29.92
2018-12-23T04:10:54.623Z,31.13
2018-12-23T04:13:27.500Z,29.50
2018-12-23T04:16:00.467Z,34.60
2018-12-23T04:18:33.036Z,38.23
2018-12-23T04:21:06.866Z,34.13
2018-12-23T04:23:40.189Z,35.33
2018-12-23T04:26:14.981Z,31.27
2018-12-23T04:28:47.918Z,28.80
2018-12-23T04:31:20.765Z,37.00
2018-12-23T04:33:54.437Z,32.03
2018-12-23T04:36:34.021Z,32.03
2018-12-23T04:39:03.135Z,32.73
2018-12-23T04:41:35.901Z,32.60
2018-12-23T04:44:08.830Z,35.43
2018-12-23T04:46:41.747Z,37.93
2018-12-23T04:49:14.642Z,41.43
2018-12-23T04:51:47.764Z,41.92
2018-12-23T04:54:20.978Z,41.93
2018-12-23T04:56:58.729Z,54.63
2018-12-23T04:59:31.534Z,48.43
2018-12-23T05:02:04.595Z,42.60
2018-12-23T05:04:37.539Z,43.10
2018-12-23T05:07:10.324Z,36.40
2018-12-23T05:09:42.939Z,35.43
2018-12-23T05:12:15.734Z,35.03
2018-12-23T05:14:48.587Z,34.87
2018-12-23T05:17:21.546Z,29.27
2018-12-23T05:19:54.283Z,33.27
2018-12-23T05:22:27.842Z,39.47
2018-12-23T05:25:00.508Z,34.90
2018-12-23T05:27:32.978Z,33.10
2018-12-23T05:30:06.310Z,39.13
2018-12-23T05:41:15.911Z,31.83
2018-12-23T05:43:59.169Z,33.60
2018-12-23T05:46:42.619Z,31.63
2018-12-23T05:49:26.456Z,29.47
2018-12-23T05:52:09.879Z,32.73
2018-12-23T05:54:54.047Z,31.23
2018-12-23T05:57:39.407Z,35.25
2018-12-23T06:00:23.864Z,32.03
2018-12-23T06:05:49.532Z,32.47
2018-12-23T06:08:34.102Z,29.63
2018-12-23T06:11:16.992Z,27.60
2018-12-23T06:14:00.209Z,29.97
2018-12-23T06:16:45.162Z,30.27
2018-12-23T06:19:28.688Z,29.47
2018-12-23T06:22:13.118Z,38.30
2018-12-23T06:24:56.396Z,29.63
2018-12-23T06:27:39.487Z,31.40
2018-12-23T06:30:22.192Z,32.50
2018-12-23T06:33:05.775Z,35.13
2018-12-23T06:35:48.740Z,35.47
2018-12-23T06:41:15.393Z,27.50
2018-12-23T06:43:58.672Z,31.17
2018-12-23T06:46:41.883Z,29.67
2018-12-23T06:52:07.647Z,31.83
2018-12-23T06:54:51.040Z,32.35
2018-12-23T06:57:34.624Z,28.87
2018-12-23T07:00:19.100Z,32.17
2018-12-23T07:03:01.977Z,35.83
2018-12-23T07:05:45.084Z,41.37
2018-12-23T07:08:27.803Z,42.80
2018-12-23T07:11:12.060Z,43.60
2018-12-23T07:13:56.612Z,38.63
2018-12-23T07:16:40.144Z,31.97
2018-12-23T07:19:23.998Z,23.43
2018-12-23T07:22:07.059Z,21.87
2018-12-23T07:24:50.283Z,21.03
2018-12-23T07:27:34.481Z,23.53
2018-12-23T07:30:18.231Z,21.77
2018-12-23T07:33:03.045Z,22.67
2018-12-23T07:35:46.111Z,25.60
2018-12-23T07:38:29.999Z,22.43
2018-12-23T07:41:13.707Z,21.42
2018-12-23T07:43:57.804Z,19.93
2018-12-23T07:46:42.550Z,20.37
2018-12-23T07:49:25.824Z,19.73
2018-12-23T07:52:09.079Z,19.10
2018-12-23T07:54:54.556Z,20.10
2018-12-23T07:57:38.402Z,20.33
2018-12-23T08:00:21.406Z,22.83
2018-12-23T08:03:03.971Z,19.40
2018-12-23T08:05:47.696Z,16.37
2018-12-23T08:08:31.347Z,18.80
2018-12-23T08:11:15.405Z,21.90
2018-12-23T08:13:59.519Z,16.77
2018-12-23T08:16:44.287Z,17.37
2018-12-23T08:19:27.947Z,18.20
2018-12-23T08:22:11.103Z,19.57
2018-12-23T08:24:57.147Z,9.97
2018-12-23T08:27:43.291Z,22.47
2018-12-23T08:30:27.506Z,18.83
2018-12-23T08:33:14.431Z,22.00
2018-12-23T08:35:58.994Z,22.20
2018-12-23T08:38:43.131Z,21.57
2018-12-23T08:41:27.236Z,23.53
2018-12-23T08:44:10.222Z,22.00
2018-12-23T08:46:54.113Z,20.87
2018-12-23T08:49:37.647Z,20.80
2018-12-23T08:52:20.387Z,20.87
2018-12-23T08:57:45.873Z,20.00
2018-12-23T09:00:29.856Z,19.90
2018-12-23T09:03:18.810Z,22.37
2018-12-23T09:05:59.228Z,21.93
2018-12-23T09:08:43.599Z,24.35
2018-12-23T09:11:28.335Z,27.13
2018-12-23T09:14:12.819Z,23.90
2018-12-23T09:16:56.101Z,28.27
2018-12-23T09:19:39.536Z,26.17
2018-12-23T09:22:23.108Z,24.93
2018-12-23T09:25:06.950Z,26.37
2018-12-23T09:27:50.763Z,31.20
2018-12-23T09:30:34.918Z,33.23
2018-12-23T09:33:18.322Z,33.57
2018-12-23T09:36:01.235Z,29.13
2018-12-23T09:38:44.232Z,32.67
2018-12-23T09:41:27.759Z,37.07
2018-12-23T09:44:11.194Z,42.77
2018-12-23T09:46:55.619Z,40.87
2018-12-23T09:52:22.456Z,46.50
2018-12-23T09:55:05.283Z,45.07
2018-12-23T09:57:48.302Z,45.37
2018-12-23T10:00:31.793Z,53.20
2018-12-23T10:03:16.863Z,107.37
2018-12-23T10:06:00.672Z,83.73
2018-12-23T10:08:44.915Z,71.80
2018-12-23T10:11:28.592Z,50.60
2018-12-23T10:16:55.987Z,37.73
2018-12-23T10:19:41.041Z,43.10
2018-12-23T10:22:24.062Z,46.73
2018-12-23T10:27:50.739Z,53.23
2018-12-23T10:33:20.720Z,42.50
2018-12-23T10:36:04.173Z,36.65
2018-12-23T10:38:48.620Z,37.87
2018-12-23T10:41:32.016Z,36.37
2018-12-23T10:44:17.384Z,31.10
2018-12-23T10:47:00.764Z,37.47
2018-12-23T10:49:44.103Z,38.57
2018-12-23T10:52:27.049Z,34.63
2018-12-23T10:55:10.100Z,35.70
2018-12-23T10:57:54.105Z,38.67
2018-12-23T11:00:37.724Z,40.33
2018-12-23T11:03:20.701Z,38.17
2018-12-23T11:06:04.881Z,44.10
2018-12-23T11:08:47.816Z,44.07
2018-12-23T11:11:31.892Z,46.10
2018-12-23T11:14:15.004Z,50.47
2018-12-23T11:16:58.822Z,49.17
2018-12-23T11:19:43.222Z,47.27
2018-12-23T11:25:08.774Z,52.50
2018-12-23T11:27:52.277Z,46.20
2018-12-23T11:30:35.294Z,51.23
2018-12-23T11:33:19.580Z,57.20
2018-12-23T11:36:03.110Z,51.37
2018-12-23T11:38:47.411Z,56.40
2018-12-23T11:41:30.450Z,52.47
2018-12-23T11:44:14.797Z,54.80
2018-12-23T11:46:58.269Z,57.23
2018-12-23T11:49:41.157Z,67.50
2018-12-23T11:52:24.214Z,126.27
2018-12-23T11:55:07.844Z,175.73
2018-12-23T12:00:34.250Z,80.70
2018-12-23T12:03:19.005Z,75.40
2018-12-23T12:06:03.786Z,60.23
2018-12-23T12:08:48.673Z,62.93
2018-12-23T12:11:32.439Z,62.33
2018-12-23T12:14:16.379Z,59.87
2018-12-23T12:16:59.302Z,56.97
2018-12-23T12:19:44.038Z,52.33
2018-12-23T12:22:27.150Z,48.80
2018-12-23T12:25:12.108Z,54.03
2018-12-23T12:27:55.557Z,75.83
2018-12-23T12:30:39.206Z,63.33
2018-12-23T12:33:22.476Z,63.77
2018-12-23T12:36:07.146Z,58.07
2018-12-23T12:38:52.204Z,64.33
2018-12-23T12:41:37.258Z,69.80
2018-12-23T12:44:21.078Z,66.00
2018-12-23T12:47:04.750Z,72.87
2018-12-23T12:49:48.196Z,68.50
2018-12-23T12:52:31.886Z,60.40
2018-12-23T12:55:15.198Z,54.53
2018-12-23T12:57:58.543Z,64.17
2018-12-23T13:00:42.516Z,57.58
2018-12-23T13:03:25.435Z,55.57
2018-12-23T13:06:09.486Z,51.90
2018-12-23T13:09:00.297Z,46.80
2018-12-23T13:11:36.461Z,47.90
2018-12-23T13:14:19.349Z,43.87
2018-12-23T13:17:03.880Z,47.70
2018-12-23T13:19:48.298Z,52.97
2018-12-23T13:22:31.930Z,42.67
2018-12-23T13:25:15.162Z,45.83
2018-12-23T13:27:59.109Z,42.13
2018-12-23T13:30:42.199Z,38.30
2018-12-23T13:33:26.032Z,41.93
2018-12-23T13:38:55.187Z,32.50
2018-12-23T13:44:22.591Z,26.70
2018-12-23T13:47:06.291Z,25.77
2018-12-23T13:49:49.595Z,26.10
2018-12-23T13:52:33.888Z,30.70
2018-12-23T13:55:16.836Z,35.25
2018-12-23T13:58:01.244Z,35.03
2018-12-23T14:00:45.776Z,26.30
2018-12-23T14:03:29.316Z,27.70
2018-12-23T14:06:12.235Z,29.48
2018-12-23T14:08:55.356Z,32.83
2018-12-23T14:11:40.299Z,27.27
2018-12-23T14:14:23.799Z,27.90
2018-12-23T14:19:53.148Z,27.30
2018-12-23T14:22:36.011Z,22.87
2018-12-23T14:28:03.119Z,30.65
2018-12-23T14:33:35.969Z,27.13
2018-12-23T14:39:03.289Z,22.07
2018-12-23T14:47:17.531Z,17.40
2018-12-23T14:50:00.701Z,16.87
2018-12-23T14:52:44.020Z,21.90
2018-12-23T14:58:11.193Z,17.23
2018-12-23T15:00:56.451Z,23.37
2018-12-23T15:03:39.419Z,21.87
2018-12-23T15:06:22.412Z,16.07
2018-12-23T15:09:07.624Z,15.27
2018-12-23T15:11:51.263Z,19.80
2018-12-23T15:14:34.631Z,22.03
2018-12-23T15:17:18.228Z,17.03
2018-12-23T15:20:01.304Z,21.57
2018-12-23T15:22:44.518Z,17.98
2018-12-23T15:25:27.583Z,27.07
2018-12-23T15:28:11.447Z,18.13
2018-12-23T15:30:54.244Z,19.27
2018-12-23T15:36:19.300Z,13.20
2018-12-23T15:39:02.239Z,19.63
2018-12-23T15:41:45.494Z,24.37
2018-12-23T15:44:28.612Z,13.67
2018-12-23T15:47:11.791Z,12.93
2018-12-23T15:49:55.255Z,18.93
2018-12-23T15:52:38.904Z,21.07
2018-12-23T15:55:22.729Z,12.10
2018-12-23T15:58:06.112Z,15.03
2018-12-23T16:00:50.583Z,8.70
2018-12-23T16:03:34.140Z,12.87
2018-12-23T16:06:17.238Z,6.90
2018-12-23T16:09:02.612Z,10.30
2018-12-23T16:11:46.022Z,11.87
2018-12-23T16:14:29.212Z,9.00
2018-12-23T16:17:13.841Z,14.07
2018-12-23T16:19:57.042Z,11.90
2018-12-23T16:25:25.092Z,12.30
2018-12-23T16:28:08.851Z,12.50
2018-12-23T16:30:51.875Z,4.67
2018-12-23T16:33:35.223Z,11.27
2018-12-23T16:36:19.632Z,6.60
2018-12-23T16:39:03.556Z,10.53
2018-12-23T16:41:46.718Z,10.27
2018-12-23T16:44:30.259Z,8.27
2018-12-23T16:47:13.311Z,6.07
2018-12-23T16:49:56.716Z,7.92
2018-12-23T16:52:40.033Z,11.90
2018-12-23T16:55:24.568Z,8.23
2018-12-23T16:58:08.914Z,6.47
2018-12-23T17:00:52.615Z,5.90
2018-12-23T17:03:36.556Z,6.67
2018-12-23T17:06:20.370Z,9.73
2018-12-23T17:09:03.903Z,11.20
2018-12-23T17:11:48.074Z,8.53
2018-12-23T17:14:31.428Z,11.17
2018-12-23T17:17:14.283Z,5.87
2018-12-23T17:19:57.910Z,10.27
2018-12-23T17:22:43.296Z,7.27
2018-12-23T17:25:27.460Z,8.10
2018-12-23T17:28:10.574Z,10.67
2018-12-23T17:30:54.939Z,8.93
2018-12-23T17:33:37.827Z,6.58
2018-12-23T17:36:21.252Z,7.33
2018-12-23T17:39:05.668Z,10.23
2018-12-23T17:41:49.275Z,8.43
2018-12-23T17:44:32.586Z,9.63
2018-12-23T17:47:16.128Z,8.20
2018-12-23T17:49:58.695Z,10.40
2018-12-23T17:52:42.185Z,11.90
2018-12-23T17:55:25.395Z,11.93
2018-12-23T17:58:08.946Z,11.00
2018-12-23T18:00:52.228Z,10.63
2018-12-23T18:03:37.475Z,11.13
2018-12-23T18:06:20.400Z,15.43
2018-12-23T18:09:05.779Z,11.27
2018-12-23T18:11:49.291Z,15.73
2018-12-23T18:14:32.477Z,14.83
2018-12-23T18:22:49.991Z,13.37
2018-12-23T18:25:33.207Z,11.70
2018-12-23T18:28:16.108Z,9.53
2018-12-23T18:30:59.837Z,14.40
2018-12-23T18:33:43.274Z,10.07
2018-12-23T18:36:27.212Z,12.47
2018-12-23T18:39:10.578Z,10.17
2018-12-23T18:41:55.011Z,8.63
2018-12-23T18:47:21.175Z,7.07
2018-12-23T18:50:04.287Z,8.57
2018-12-23T18:52:47.296Z,12.23
2018-12-23T18:55:31.326Z,9.53
2018-12-23T18:58:14.418Z,10.60
2018-12-23T19:00:57.356Z,11.40
2018-12-23T19:03:40.899Z,15.40
2018-12-23T19:06:24.329Z,10.23
2018-12-23T19:09:07.733Z,13.83
2018-12-23T19:14:34.636Z,10.07
2018-12-23T19:22:53.672Z,18.13
2018-12-23T19:25:36.524Z,11.93
2018-12-23T19:28:22.003Z,13.03
2018-12-23T19:31:05.939Z,13.77
2018-12-23T19:33:49.034Z,11.37
2018-12-23T19:36:32.759Z,8.00
2018-12-23T19:39:16.435Z,7.43
2018-12-23T19:42:02.259Z,8.27
2018-12-23T19:44:45.745Z,11.70
2018-12-23T19:50:11.597Z,7.40
2018-12-23T19:52:55.059Z,8.13
2018-12-23T19:55:38.168Z,11.57
2018-12-23T19:58:22.850Z,10.63
2018-12-23T20:01:06.885Z,13.47
2018-12-23T20:06:32.863Z,11.70
2018-12-23T20:11:58.399Z,7.77
2018-12-23T20:14:42.104Z,10.83
2018-12-23T20:17:26.146Z,5.37
2018-12-23T20:20:09.924Z,7.70
2018-12-23T20:22:54.274Z,12.43
2018-12-23T20:25:37.292Z,13.33
2018-12-23T20:28:22.054Z,4.93
2018-12-23T20:31:05.456Z,6.43
2018-12-23T20:33:48.608Z,8.97
2018-12-23T20:36:31.820Z,4.33
2018-12-23T20:39:15.807Z,8.80
2018-12-23T20:42:00.572Z,9.17
2018-12-23T20:44:45.308Z,10.80
2018-12-23T20:47:28.518Z,8.07
2018-12-23T20:50:11.568Z,13.37
2018-12-23T20:55:37.329Z,9.47
2018-12-23T20:58:21.156Z,17.67
2018-12-23T21:01:04.338Z,10.20
2018-12-23T21:06:31.330Z,9.73
2018-12-23T21:09:15.099Z,10.43
2018-12-23T21:11:59.419Z,8.50
2018-12-23T21:14:42.827Z,7.80
2018-12-23T21:17:26.382Z,7.10
2018-12-23T21:20:10.355Z,8.97
2018-12-23T21:22:53.889Z,12.20
2018-12-23T21:28:20.039Z,8.47
2018-12-23T21:31:03.582Z,8.93
2018-12-23T21:33:46.715Z,11.37
2018-12-23T21:36:30.703Z,9.70
2018-12-23T21:39:40.764Z,12.03
2018-12-23T21:42:50.974Z,11.90
2018-12-23T21:45:34.652Z,12.53
2018-12-23T21:48:18.131Z,11.17
2018-12-23T21:51:01.999Z,11.37
2018-12-23T21:53:46.608Z,10.83
2018-12-23T21:56:29.624Z,13.60
2018-12-23T21:59:12.488Z,12.20
2018-12-23T22:01:56.758Z,12.43
2018-12-23T22:04:40.434Z,10.67
2018-12-23T22:07:24.590Z,9.10
2018-12-23T22:10:08.837Z,11.83
2018-12-23T22:12:52.087Z,12.60
2018-12-23T22:18:24.207Z,19.23
2018-12-23T22:21:08.315Z,12.00
2018-12-23T22:23:51.691Z,10.77
2018-12-23T22:29:19.254Z,12.27
2018-12-23T22:32:02.762Z,19.17
2018-12-23T22:34:47.375Z,22.63
2018-12-23T22:40:12.860Z,21.07
2018-12-23T22:42:56.333Z,16.33
2018-12-23T22:45:39.211Z,19.17
2018-12-23T22:48:13.999Z,25.10
2018-12-23T22:51:10.888Z,15.33
2018-12-23T22:54:04.378Z,23.40
2018-12-23T22:56:48.518Z,15.23
2018-12-23T23:02:14.268Z,16.27
2018-12-23T23:04:58.303Z,18.17
2018-12-23T23:07:41.851Z,15.37
2018-12-23T23:10:26.204Z,13.93
2018-12-23T23:13:18.314Z,13.57
2018-12-23T23:15:56.097Z,24.50
2018-12-23T23:18:41.225Z,16.83
2018-12-23T23:24:09.158Z,15.67
2018-12-23T23:29:35.307Z,17.37
2018-12-23T23:32:19.992Z,21.80
2018-12-23T23:35:03.932Z,18.27
2018-12-23T23:37:48.435Z,12.20
2018-12-23T23:40:32.125Z,12.80
2018-12-23T23:43:16.793Z,25.27
2018-12-23T23:45:59.741Z,13.07
2018-12-23T23:48:44.263Z,15.10
2018-12-23T23:51:28.632Z,14.70
2018-12-23T23:54:12.809Z,14.90
2018-12-23T23:56:56.709Z,16.17
2018-12-23T23:59:41.409Z,14.17
